sensor_id;sensor_type;location;lat;lon;timestamp;temperature;humidity
2112;DHT22;1062;52.538;13.400;2024-01-15T00:01:56;2.40;99.90
2112;DHT22;1062;52.538;13.400;2024-01-15T00:04:22;2.40;99.90
2112;DHT22;1062;52.538;13.400;2024-01-15T00:06:48;2.30;99.90
2112;DHT22;1062;52.538;13.400;2024-01-15T00:09:14;2.30;99.90
2112;DHT22;1062;52.538;13.400;2024-01-15T00:11:40;2.20;99.90
2112;DHT22;1062;52.538;13.400;2024-01-15T00:14:05;2.20;99.90
2112;DHT22;1062;52.538;13.400;2024-01-15T00:16:31;2.10;99.90
2112;DHT22;1062;52.538;13.400;2024-01-15T00:18:58;2.10;99.90
2112;DHT22;1062;52.538;13.400;2024-01-15T00:21:24;2.20;99.90
2112;DHT22;1062;52.538;13.400;2024-01-15T00:23:49;2.20;99.90
2112;DHT22;1062;52.538;13.400;2024-01-15T00:26:15;2.20;99.90
2112;DHT22;1062;52.538;13.400;2024-01-15T00:28:41;2.20;99.90
2112;DHT22;1062;52.538;13.400;2024-01-15T00:31:06;2.20;99.90
2112;DHT22;1062;52.538;13.400;2024-01-15T00:33:32;2.20;99.90
2112;DHT22;1062;52.538;13.400;2024-01-15T00:35:58;2.20;99.90
2112;DHT22;1062;52.538;13.400;2024-01-15T00:38:23;2.20;99.90
2112;DHT22;1062;52.538;13.400;2024-01-15T00:40:49;2.20;99.90
2112;DHT22;1062;52.538;13.400;2024-01-15T00:43:15;2.20;99.90
2112;DHT22;1062;52.538;13.400;2024-01-15T00:45:43;2.20;99.90
2112;DHT22;1062;52.538;13.400;2024-01-15T00:48:09;2.20;99.90
2112;DHT22;1062;52.538;13.400;2024-01-15T00:50:35;2.20;99.90
2112;DHT22;1062;52.538;13.400;2024-01-15T00:53:00;2.20;99.90
2112;DHT22;1062;52.538;13.400;2024-01-15T00:55:28;2.20;99.90
2112;DHT22;1062;52.538;13.400;2024-01-15T00:57:53;2.20;99.90
2112;DHT22;1062;52.538;13.400;2024-01-15T01:00:19;2.20;99.90
2112;DHT22;1062;52.538;13.400;2024-01-15T01:02:44;2.20;99.90
2112;DHT22;1062;52.538;13.400;2024-01-15T01:05:10;2.10;99.90
2112;DHT22;1062;52.538;13.400;2024-01-15T01:07:35;2.10;99.90
2112;DHT22;1062;52.538;13.400;2024-01-15T01:10:01;2.10;99.90
2112;DHT22;1062;52.538;13.400;2024-01-15T01:12:27;2.00;99.90
2112;DHT22;1062;52.538;13.400;2024-01-15T01:14:52;1.90;99.90
2112;DHT22;1062;52.538;13.400;2024-01-15T01:17:18;1.80;99.90
2112;DHT22;1062;52.538;13.400;2024-01-15T01:19:43;1.80;99.90
2112;DHT22;1062;52.538;13.400;2024-01-15T01:22:09;1.80;99.90
2112;DHT22;1062;52.538;13.400;2024-01-15T01:24:35;1.70;99.90
2112;DHT22;1062;52.538;13.400;2024-01-15T01:27:00;1.70;99.90
2112;DHT22;1062;52.538;13.400;2024-01-15T01:29:26;1.70;99.90
2112;DHT22;1062;52.538;13.400;2024-01-15T01:31:52;1.80;99.90
2112;DHT22;1062;52.538;13.400;2024-01-15T01:34:18;1.70;99.90
2112;DHT22;1062;52.538;13.400;2024-01-15T01:36:43;1.70;99.90
2112;DHT22;1062;52.538;13.400;2024-01-15T01:39:09;1.80;99.90
2112;DHT22;1062;52.538;13.400;2024-01-15T01:41:35;1.70;99.90
2112;DHT22;1062;52.538;13.400;2024-01-15T01:44:01;1.70;99.90
2112;DHT22;1062;52.538;13.400;2024-01-15T01:46:27;1.70;99.90
2112;DHT22;1062;52.538;13.400;2024-01-15T01:48:56;1.70;99.90
2112;DHT22;1062;52.538;13.400;2024-01-15T01:51:24;1.60;99.90
2112;DHT22;1062;52.538;13.400;2024-01-15T01:53:50;1.50;99.90
2112;DHT22;1062;52.538;13.400;2024-01-15T01:56:17;1.50;99.90
2112;DHT22;1062;52.538;13.400;2024-01-15T01:58:44;1.60;99.90
2112;DHT22;1062;52.538;13.400;2024-01-15T02:01:11;1.50;99.90
2112;DHT22;1062;52.538;13.400;2024-01-15T02:03:39;1.60;99.90
2112;DHT22;1062;52.538;13.400;2024-01-15T02:06:05;1.50;99.90
2112;DHT22;1062;52.538;13.400;2024-01-15T02:08:30;1.60;99.90
2112;DHT22;1062;52.538;13.400;2024-01-15T02:10:56;1.60;99.90
2112;DHT22;1062;52.538;13.400;2024-01-15T02:13:22;1.60;99.90
2112;DHT22;1062;52.538;13.400;2024-01-15T02:15:48;1.50;99.90
2112;DHT22;1062;52.538;13.400;2024-01-15T02:18:13;1.60;99.90
2112;DHT22;1062;52.538;13.400;2024-01-15T02:20:39;1.60;99.90
2112;DHT22;1062;52.538;13.400;2024-01-15T02:23:12;1.60;99.90
2112;DHT22;1062;52.538;13.400;2024-01-15T02:25:40;1.60;99.90
2112;DHT22;1062;52.538;13.400;2024-01-15T02:28:07;1.60;99.90
2112;DHT22;1062;52.538;13.400;2024-01-15T02:30:38;1.60;99.90
2112;DHT22;1062;52.538;13.400;2024-01-15T02:33:05;1.60;99.90
2112;DHT22;1062;52.538;13.400;2024-01-15T02:35:31;1.60;99.90
2112;DHT22;1062;52.538;13.400;2024-01-15T02:37:57;1.60;99.90
2112;DHT22;1062;52.538;13.400;2024-01-15T02:40:22;1.60;99.90
2112;DHT22;1062;52.538;13.400;2024-01-15T02:42:48;1.60;99.90
2112;DHT22;1062;52.538;13.400;2024-01-15T02:45:14;1.60;99.90
2112;DHT22;1062;52.538;13.400;2024-01-15T02:47:39;1.60;99.90
2112;DHT22;1062;52.538;13.400;2024-01-15T02:50:05;1.60;99.90
2112;DHT22;1062;52.538;13.400;2024-01-15T02:52:31;1.60;99.90
2112;DHT22;1062;52.538;13.400;2024-01-15T02:54:56;1.60;99.90
2112;DHT22;1062;52.538;13.400;2024-01-15T02:57:22;1.60;99.90
2112;DHT22;1062;52.538;13.400;2024-01-15T02:59:47;1.60;99.90
2112;DHT22;1062;52.538;13.400;2024-01-15T03:02:13;1.70;99.90
2112;DHT22;1062;52.538;13.400;2024-01-15T03:04:43;1.70;99.90
2112;DHT22;1062;52.538;13.400;2024-01-15T03:07:09;1.70;99.90
2112;DHT22;1062;52.538;13.400;2024-01-15T03:09:34;1.70;99.90
2112;DHT22;1062;52.538;13.400;2024-01-15T03:12:00;1.70;99.90
2112;DHT22;1062;52.538;13.400;2024-01-15T03:14:26;1.80;99.90
2112;DHT22;1062;52.538;13.400;2024-01-15T03:16:52;1.80;99.90
2112;DHT22;1062;52.538;13.400;2024-01-15T03:19:18;1.80;99.90
2112;DHT22;1062;52.538;13.400;2024-01-15T03:21:43;1.80;99.90
2112;DHT22;1062;52.538;13.400;2024-01-15T03:24:09;1.80;99.90
2112;DHT22;1062;52.538;13.400;2024-01-15T03:26:34;1.80;99.90
2112;DHT22;1062;52.538;13.400;2024-01-15T03:29:00;1.80;99.90
2112;DHT22;1062;52.538;13.400;2024-01-15T03:31:26;1.80;99.90
2112;DHT22;1062;52.538;13.400;2024-01-15T03:33:51;1.80;99.90
2112;DHT22;1062;52.538;13.400;2024-01-15T03:36:17;1.80;99.90
2112;DHT22;1062;52.538;13.400;2024-01-15T03:38:43;1.80;99.90
2112;DHT22;1062;52.538;13.400;2024-01-15T03:41:08;1.80;99.90
2112;DHT22;1062;52.538;13.400;2024-01-15T03:43:34;1.80;99.90
2112;DHT22;1062;52.538;13.400;2024-01-15T03:45:59;1.80;99.90
2112;DHT22;1062;52.538;13.400;2024-01-15T03:48:25;1.80;99.90
2112;DHT22;1062;52.538;13.400;2024-01-15T03:50:50;1.80;99.90
2112;DHT22;1062;52.538;13.400;2024-01-15T03:53:16;1.90;99.90
2112;DHT22;1062;52.538;13.400;2024-01-15T03:55:42;1.90;99.90
2112;DHT22;1062;52.538;13.400;2024-01-15T03:58:08;1.90;99.90
2112;DHT22;1062;52.538;13.400;2024-01-15T04:00:34;1.90;99.90
2112;DHT22;1062;52.538;13.400;2024-01-15T04:02:59;1.90;99.90
2112;DHT22;1062;52.538;13.400;2024-01-15T04:05:25;1.90;99.90
2112;DHT22;1062;52.538;13.400;2024-01-15T04:07:51;1.90;99.90
2112;DHT22;1062;52.538;13.400;2024-01-15T04:10:17;1.90;99.90
2112;DHT22;1062;52.538;13.400;2024-01-15T04:12:42;1.90;99.90
2112;DHT22;1062;52.538;13.400;2024-01-15T04:15:08;1.90;99.90
2112;DHT22;1062;52.538;13.400;2024-01-15T04:17:34;1.90;99.90
2112;DHT22;1062;52.538;13.400;2024-01-15T04:19:59;1.90;99.90
2112;DHT22;1062;52.538;13.400;2024-01-15T04:22:26;1.90;99.90
2112;DHT22;1062;52.538;13.400;2024-01-15T04:24:52;1.90;99.90
2112;DHT22;1062;52.538;13.400;2024-01-15T04:27:17;1.90;99.90
2112;DHT22;1062;52.538;13.400;2024-01-15T04:29:43;1.90;99.90
2112;DHT22;1062;52.538;13.400;2024-01-15T04:32:10;1.90;99.90
2112;DHT22;1062;52.538;13.400;2024-01-15T04:34:35;1.90;99.90
2112;DHT22;1062;52.538;13.400;2024-01-15T04:37:01;1.90;99.90
2112;DHT22;1062;52.538;13.400;2024-01-15T04:39:27;2.00;99.90
2112;DHT22;1062;52.538;13.400;2024-01-15T04:41:52;2.00;99.90
2112;DHT22;1062;52.538;13.400;2024-01-15T04:44:18;2.00;99.90
2112;DHT22;1062;52.538;13.400;2024-01-15T04:46:44;2.00;99.90
2112;DHT22;1062;52.538;13.400;2024-01-15T04:49:10;2.00;99.90
2112;DHT22;1062;52.538;13.400;2024-01-15T04:51:36;2.00;99.90
2112;DHT22;1062;52.538;13.400;2024-01-15T04:54:01;2.00;99.90
2112;DHT22;1062;52.538;13.400;2024-01-15T04:56:27;2.00;99.90
2112;DHT22;1062;52.538;13.400;2024-01-15T04:58:52;2.00;99.90
2112;DHT22;1062;52.538;13.400;2024-01-15T05:01:18;2.10;99.90
2112;DHT22;1062;52.538;13.400;2024-01-15T05:03:44;2.10;99.90
2112;DHT22;1062;52.538;13.400;2024-01-15T05:06:09;2.10;99.90
2112;DHT22;1062;52.538;13.400;2024-01-15T05:08:35;2.10;99.90
2112;DHT22;1062;52.538;13.400;2024-01-15T05:11:01;2.10;99.90
2112;DHT22;1062;52.538;13.400;2024-01-15T05:13:26;2.10;99.90
2112;DHT22;1062;52.538;13.400;2024-01-15T05:15:52;2.10;99.90
2112;DHT22;1062;52.538;13.400;2024-01-15T05:18:18;2.10;99.90
2112;DHT22;1062;52.538;13.400;2024-01-15T05:20:43;2.10;99.90
2112;DHT22;1062;52.538;13.400;2024-01-15T05:23:09;2.10;99.90
2112;DHT22;1062;52.538;13.400;2024-01-15T05:25:35;2.10;99.90
2112;DHT22;1062;52.538;13.400;2024-01-15T05:28:01;2.10;99.90
2112;DHT22;1062;52.538;13.400;2024-01-15T05:30:27;2.10;99.90
2112;DHT22;1062;52.538;13.400;2024-01-15T05:32:53;2.10;99.90
2112;DHT22;1062;52.538;13.400;2024-01-15T05:35:19;2.10;99.90
2112;DHT22;1062;52.538;13.400;2024-01-15T05:37:45;2.10;99.90
2112;DHT22;1062;52.538;13.400;2024-01-15T05:40:12;2.10;99.90
2112;DHT22;1062;52.538;13.400;2024-01-15T05:42:38;2.10;99.90
2112;DHT22;1062;52.538;13.400;2024-01-15T05:45:05;2.10;99.90
2112;DHT22;1062;52.538;13.400;2024-01-15T05:47:31;2.20;99.90
2112;DHT22;1062;52.538;13.400;2024-01-15T05:49:57;2.20;99.90
2112;DHT22;1062;52.538;13.400;2024-01-15T05:52:23;2.20;99.90
2112;DHT22;1062;52.538;13.400;2024-01-15T05:54:49;2.20;99.90
2112;DHT22;1062;52.538;13.400;2024-01-15T05:57:15;2.20;99.90
2112;DHT22;1062;52.538;13.400;2024-01-15T05:59:40;2.30;99.90
2112;DHT22;1062;52.538;13.400;2024-01-15T06:02:06;2.20;99.90
2112;DHT22;1062;52.538;13.400;2024-01-15T06:04:32;2.10;99.90
2112;DHT22;1062;52.538;13.400;2024-01-15T06:06:57;2.10;99.90
2112;DHT22;1062;52.538;13.400;2024-01-15T06:09:23;2.10;99.90
2112;DHT22;1062;52.538;13.400;2024-01-15T06:11:48;2.10;99.90
2112;DHT22;1062;52.538;13.400;2024-01-15T06:14:14;2.10;99.90
2112;DHT22;1062;52.538;13.400;2024-01-15T06:16:39;2.10;99.90
2112;DHT22;1062;52.538;13.400;2024-01-15T06:19:05;2.10;99.90
2112;DHT22;1062;52.538;13.400;2024-01-15T06:21:31;2.20;99.90
2112;DHT22;1062;52.538;13.400;2024-01-15T06:23:56;2.20;99.90
2112;DHT22;1062;52.538;13.400;2024-01-15T06:26:22;2.20;99.90
2112;DHT22;1062;52.538;13.400;2024-01-15T06:28:48;2.20;99.90
2112;DHT22;1062;52.538;13.400;2024-01-15T06:31:14;2.30;99.90
2112;DHT22;1062;52.538;13.400;2024-01-15T06:33:39;2.30;99.90
2112;DHT22;1062;52.538;13.400;2024-01-15T06:36:05;2.30;99.90
2112;DHT22;1062;52.538;13.400;2024-01-15T06:38:31;2.30;99.90
2112;DHT22;1062;52.538;13.400;2024-01-15T06:40:57;2.30;99.90
2112;DHT22;1062;52.538;13.400;2024-01-15T06:43:22;2.30;99.90
2112;DHT22;1062;52.538;13.400;2024-01-15T06:45:48;2.30;99.90
2112;DHT22;1062;52.538;13.400;2024-01-15T06:48:14;2.30;99.90
2112;DHT22;1062;52.538;13.400;2024-01-15T06:50:42;2.30;99.90
2112;DHT22;1062;52.538;13.400;2024-01-15T06:53:08;2.30;99.90
2112;DHT22;1062;52.538;13.400;2024-01-15T06:55:34;2.30;99.90
2112;DHT22;1062;52.538;13.400;2024-01-15T06:57:59;2.30;99.90
2112;DHT22;1062;52.538;13.400;2024-01-15T07:00:25;2.30;99.90
2112;DHT22;1062;52.538;13.400;2024-01-15T07:02:51;2.30;99.90
2112;DHT22;1062;52.538;13.400;2024-01-15T07:05:17;2.30;99.90
2112;DHT22;1062;52.538;13.400;2024-01-15T07:07:43;2.30;99.90
2112;DHT22;1062;52.538;13.400;2024-01-15T07:10:08;2.30;99.90
2112;DHT22;1062;52.538;13.400;2024-01-15T07:12:34;2.30;99.90
2112;DHT22;1062;52.538;13.400;2024-01-15T07:15:00;2.30;99.90
2112;DHT22;1062;52.538;13.400;2024-01-15T07:17:25;2.30;99.90
2112;DHT22;1062;52.538;13.400;2024-01-15T07:19:51;2.40;99.90
2112;DHT22;1062;52.538;13.400;2024-01-15T07:22:17;2.40;99.90
2112;DHT22;1062;52.538;13.400;2024-01-15T07:24:43;2.40;99.90
2112;DHT22;1062;52.538;13.400;2024-01-15T07:27:09;2.40;99.90
2112;DHT22;1062;52.538;13.400;2024-01-15T07:29:35;2.40;99.90
2112;DHT22;1062;52.538;13.400;2024-01-15T07:32:04;2.40;99.90
2112;DHT22;1062;52.538;13.400;2024-01-15T07:34:30;2.50;99.90
2112;DHT22;1062;52.538;13.400;2024-01-15T07:36:57;2.50;99.90
2112;DHT22;1062;52.538;13.400;2024-01-15T07:39:23;2.50;99.90
2112;DHT22;1062;52.538;13.400;2024-01-15T07:41:50;2.60;99.90
2112;DHT22;1062;52.538;13.400;2024-01-15T07:44:16;2.50;99.90
2112;DHT22;1062;52.538;13.400;2024-01-15T07:46:46;2.60;99.90
2112;DHT22;1062;52.538;13.400;2024-01-15T07:49:12;2.60;99.90
2112;DHT22;1062;52.538;13.400;2024-01-15T07:51:37;2.60;99.90
2112;DHT22;1062;52.538;13.400;2024-01-15T07:54:03;2.60;99.90
2112;DHT22;1062;52.538;13.400;2024-01-15T07:56:28;2.60;99.90
2112;DHT22;1062;52.538;13.400;2024-01-15T07:58:54;2.60;99.90
2112;DHT22;1062;52.538;13.400;2024-01-15T08:01:21;2.60;99.90
2112;DHT22;1062;52.538;13.400;2024-01-15T08:03:47;2.60;99.90
2112;DHT22;1062;52.538;13.400;2024-01-15T08:06:13;2.60;99.90
2112;DHT22;1062;52.538;13.400;2024-01-15T08:08:39;2.60;99.90
2112;DHT22;1062;52.538;13.400;2024-01-15T08:11:04;2.60;99.90
2112;DHT22;1062;52.538;13.400;2024-01-15T08:13:30;2.70;99.90
2112;DHT22;1062;52.538;13.400;2024-01-15T08:15:56;2.60;99.90
2112;DHT22;1062;52.538;13.400;2024-01-15T08:18:21;2.60;99.90
2112;DHT22;1062;52.538;13.400;2024-01-15T08:20:47;2.70;99.90
2112;DHT22;1062;52.538;13.400;2024-01-15T08:23:13;2.60;99.90
2112;DHT22;1062;52.538;13.400;2024-01-15T08:25:39;2.70;99.90
2112;DHT22;1062;52.538;13.400;2024-01-15T08:28:04;2.70;99.90
2112;DHT22;1062;52.538;13.400;2024-01-15T08:30:30;2.60;99.90
2112;DHT22;1062;52.538;13.400;2024-01-15T08:32:56;2.60;99.90
2112;DHT22;1062;52.538;13.400;2024-01-15T08:35:22;2.70;99.90
2112;DHT22;1062;52.538;13.400;2024-01-15T08:37:51;2.70;99.90
2112;DHT22;1062;52.538;13.400;2024-01-15T08:40:17;2.70;99.90
2112;DHT22;1062;52.538;13.400;2024-01-15T08:42:43;2.70;99.90
2112;DHT22;1062;52.538;13.400;2024-01-15T08:45:09;2.70;99.90
2112;DHT22;1062;52.538;13.400;2024-01-15T08:47:35;2.60;99.90
2112;DHT22;1062;52.538;13.400;2024-01-15T08:50:02;2.60;99.90
2112;DHT22;1062;52.538;13.400;2024-01-15T08:52:29;2.70;99.90
2112;DHT22;1062;52.538;13.400;2024-01-15T08:54:58;2.70;99.90
2112;DHT22;1062;52.538;13.400;2024-01-15T08:57:24;2.70;99.90
2112;DHT22;1062;52.538;13.400;2024-01-15T08:59:52;2.70;99.90
2112;DHT22;1062;52.538;13.400;2024-01-15T09:02:18;2.70;99.90
2112;DHT22;1062;52.538;13.400;2024-01-15T09:04:51;2.70;99.90
2112;DHT22;1062;52.538;13.400;2024-01-15T09:07:29;2.70;99.90
2112;DHT22;1062;52.538;13.400;2024-01-15T09:09:55;2.70;99.90
2112;DHT22;1062;52.538;13.400;2024-01-15T09:12:21;2.80;99.90
2112;DHT22;1062;52.538;13.400;2024-01-15T09:14:49;2.80;99.90
2112;DHT22;1062;52.538;13.400;2024-01-15T09:17:20;2.80;99.90
2112;DHT22;1062;52.538;13.400;2024-01-15T09:19:49;2.80;99.90
2112;DHT22;1062;52.538;13.400;2024-01-15T09:22:20;2.90;99.90
2112;DHT22;1062;52.538;13.400;2024-01-15T09:24:49;2.80;99.90
2112;DHT22;1062;52.538;13.400;2024-01-15T09:27:15;2.80;99.90
2112;DHT22;1062;52.538;13.400;2024-01-15T09:29:43;2.80;99.90
2112;DHT22;1062;52.538;13.400;2024-01-15T09:32:14;2.90;99.90
2112;DHT22;1062;52.538;13.400;2024-01-15T09:34:51;2.90;99.90
2112;DHT22;1062;52.538;13.400;2024-01-15T09:37:17;3.00;99.90
2112;DHT22;1062;52.538;13.400;2024-01-15T09:39:43;3.10;99.90
2112;DHT22;1062;52.538;13.400;2024-01-15T09:42:11;3.00;99.90
2112;DHT22;1062;52.538;13.400;2024-01-15T09:44:40;3.10;99.90
2112;DHT22;1062;52.538;13.400;2024-01-15T09:47:07;3.30;99.90
2112;DHT22;1062;52.538;13.400;2024-01-15T09:49:33;3.40;99.90
2112;DHT22;1062;52.538;13.400;2024-01-15T09:52:01;3.40;99.90
2112;DHT22;1062;52.538;13.400;2024-01-15T09:54:27;3.40;99.90
2112;DHT22;1062;52.538;13.400;2024-01-15T09:56:58;3.40;99.90
2112;DHT22;1062;52.538;13.400;2024-01-15T09:59:24;3.50;99.90
2112;DHT22;1062;52.538;13.400;2024-01-15T10:01:52;3.40;99.90
2112;DHT22;1062;52.538;13.400;2024-01-15T10:04:20;3.30;99.90
2112;DHT22;1062;52.538;13.400;2024-01-15T10:06:46;3.30;99.90
2112;DHT22;1062;52.538;13.400;2024-01-15T10:09:13;3.30;99.90
2112;DHT22;1062;52.538;13.400;2024-01-15T10:11:42;3.30;99.90
2112;DHT22;1062;52.538;13.400;2024-01-15T10:14:09;3.40;99.90
2112;DHT22;1062;52.538;13.400;2024-01-15T10:16:41;3.30;99.90
2112;DHT22;1062;52.538;13.400;2024-01-15T10:19:08;3.40;99.90
2112;DHT22;1062;52.538;13.400;2024-01-15T10:21:34;3.30;99.90
2112;DHT22;1062;52.538;13.400;2024-01-15T10:24:03;3.30;99.90
2112;DHT22;1062;52.538;13.400;2024-01-15T10:26:29;3.30;99.90
2112;DHT22;1062;52.538;13.400;2024-01-15T10:28:55;3.50;99.90
2112;DHT22;1062;52.538;13.400;2024-01-15T10:31:21;3.60;99.90
2112;DHT22;1062;52.538;13.400;2024-01-15T10:33:48;3.40;99.90
2112;DHT22;1062;52.538;13.400;2024-01-15T10:36:15;3.50;99.90
2112;DHT22;1062;52.538;13.400;2024-01-15T10:38:43;3.60;99.90
2112;DHT22;1062;52.538;13.400;2024-01-15T10:41:08;3.50;99.90
2112;DHT22;1062;52.538;13.400;2024-01-15T10:43:34;3.40;99.90
2112;DHT22;1062;52.538;13.400;2024-01-15T10:46:00;3.30;99.90
2112;DHT22;1062;52.538;13.400;2024-01-15T10:48:26;3.20;99.90
2112;DHT22;1062;52.538;13.400;2024-01-15T10:50:54;3.30;99.90
2112;DHT22;1062;52.538;13.400;2024-01-15T10:53:20;3.30;99.90
2112;DHT22;1062;52.538;13.400;2024-01-15T10:55:47;3.50;99.90
2112;DHT22;1062;52.538;13.400;2024-01-15T10:58:15;3.50;99.90
2112;DHT22;1062;52.538;13.400;2024-01-15T11:00:41;3.40;99.90
2112;DHT22;1062;52.538;13.400;2024-01-15T11:03:07;3.40;99.90
2112;DHT22;1062;52.538;13.400;2024-01-15T11:05:41;3.50;99.90
2112;DHT22;1062;52.538;13.400;2024-01-15T11:08:08;3.50;99.90
2112;DHT22;1062;52.538;13.400;2024-01-15T11:10:48;3.60;99.90
2112;DHT22;1062;52.538;13.400;2024-01-15T11:13:40;3.80;99.90
2112;DHT22;1062;52.538;13.400;2024-01-15T11:16:13;3.60;99.90
2112;DHT22;1062;52.538;13.400;2024-01-15T11:21:24;3.50;99.90
2112;DHT22;1062;52.538;13.400;2024-01-15T11:23:56;3.40;99.90
2112;DHT22;1062;52.538;13.400;2024-01-15T11:26:44;3.30;99.90
2112;DHT22;1062;52.538;13.400;2024-01-15T11:29:29;3.40;99.90
2112;DHT22;1062;52.538;13.400;2024-01-15T11:34:21;3.30;99.90
2112;DHT22;1062;52.538;13.400;2024-01-15T11:37:07;3.30;99.90
2112;DHT22;1062;52.538;13.400;2024-01-15T11:42:00;3.30;99.90
2112;DHT22;1062;52.538;13.400;2024-01-15T11:44:27;3.30;99.90
2112;DHT22;1062;52.538;13.400;2024-01-15T11:47:05;3.20;99.90
2112;DHT22;1062;52.538;13.400;2024-01-15T11:49:59;3.20;99.90
2112;DHT22;1062;52.538;13.400;2024-01-15T11:52:33;3.10;99.90
2112;DHT22;1062;52.538;13.400;2024-01-15T11:55:17;3.00;99.90
2112;DHT22;1062;52.538;13.400;2024-01-15T11:57:52;2.60;99.90
2112;DHT22;1062;52.538;13.400;2024-01-15T12:00:21;2.20;99.90
2112;DHT22;1062;52.538;13.400;2024-01-15T12:02:48;2.10;99.90
2112;DHT22;1062;52.538;13.400;2024-01-15T12:05:16;2.10;99.90
2112;DHT22;1062;52.538;13.400;2024-01-15T12:07:43;2.10;99.90
2112;DHT22;1062;52.538;13.400;2024-01-15T12:10:14;2.30;99.90
2112;DHT22;1062;52.538;13.400;2024-01-15T12:15:09;2.40;99.90
2112;DHT22;1062;52.538;13.400;2024-01-15T12:17:35;2.30;99.90
2112;DHT22;1062;52.538;13.400;2024-01-15T12:20:03;2.40;99.90
2112;DHT22;1062;52.538;13.400;2024-01-15T12:22:30;2.40;99.90
2112;DHT22;1062;52.538;13.400;2024-01-15T12:24:55;2.50;99.90
2112;DHT22;1062;52.538;13.400;2024-01-15T12:27:21;2.50;99.90
2112;DHT22;1062;52.538;13.400;2024-01-15T12:29:47;2.50;99.90
2112;DHT22;1062;52.538;13.400;2024-01-15T12:32:13;2.40;99.90
2112;DHT22;1062;52.538;13.400;2024-01-15T12:34:38;2.40;99.90
2112;DHT22;1062;52.538;13.400;2024-01-15T12:37:04;2.40;99.90
2112;DHT22;1062;52.538;13.400;2024-01-15T12:39:34;2.40;99.90
2112;DHT22;1062;52.538;13.400;2024-01-15T12:42:01;2.40;99.90
2112;DHT22;1062;52.538;13.400;2024-01-15T12:44:27;2.40;99.90
2112;DHT22;1062;52.538;13.400;2024-01-15T12:46:53;2.20;99.90
2112;DHT22;1062;52.538;13.400;2024-01-15T12:49:19;2.10;99.90
2112;DHT22;1062;52.538;13.400;2024-01-15T12:51:56;2.10;99.90
2112;DHT22;1062;52.538;13.400;2024-01-15T12:54:22;2.10;99.90
2112;DHT22;1062;52.538;13.400;2024-01-15T12:56:49;2.10;99.90
2112;DHT22;1062;52.538;13.400;2024-01-15T12:59:15;2.10;99.90
2112;DHT22;1062;52.538;13.400;2024-01-15T13:01:41;2.20;99.90
2112;DHT22;1062;52.538;13.400;2024-01-15T13:04:07;2.30;99.90
2112;DHT22;1062;52.538;13.400;2024-01-15T13:06:34;2.30;99.90
2112;DHT22;1062;52.538;13.400;2024-01-15T13:09:00;2.40;99.90
2112;DHT22;1062;52.538;13.400;2024-01-15T13:11:27;2.40;99.90
2112;DHT22;1062;52.538;13.400;2024-01-15T13:13:52;2.30;99.90
2112;DHT22;1062;52.538;13.400;2024-01-15T13:16:18;2.30;99.90
2112;DHT22;1062;52.538;13.400;2024-01-15T13:18:46;2.40;99.90
2112;DHT22;1062;52.538;13.400;2024-01-15T13:21:11;2.30;99.90
2112;DHT22;1062;52.538;13.400;2024-01-15T13:23:38;2.30;99.90
2112;DHT22;1062;52.538;13.400;2024-01-15T13:26:04;2.30;99.90
2112;DHT22;1062;52.538;13.400;2024-01-15T13:28:30;2.40;99.90
2112;DHT22;1062;52.538;13.400;2024-01-15T13:30:56;2.40;99.90
2112;DHT22;1062;52.538;13.400;2024-01-15T13:33:21;2.40;99.90
2112;DHT22;1062;52.538;13.400;2024-01-15T13:35:47;2.40;99.90
2112;DHT22;1062;52.538;13.400;2024-01-15T13:38:15;2.40;99.90
2112;DHT22;1062;52.538;13.400;2024-01-15T13:40:41;2.40;99.90
2112;DHT22;1062;52.538;13.400;2024-01-15T13:43:06;2.40;99.90
2112;DHT22;1062;52.538;13.400;2024-01-15T13:45:34;2.30;99.90
2112;DHT22;1062;52.538;13.400;2024-01-15T13:48:01;2.30;99.90
2112;DHT22;1062;52.538;13.400;2024-01-15T13:50:26;2.20;99.90
2112;DHT22;1062;52.538;13.400;2024-01-15T13:52:53;2.20;99.90
2112;DHT22;1062;52.538;13.400;2024-01-15T13:55:18;2.30;99.90
2112;DHT22;1062;52.538;13.400;2024-01-15T13:57:44;2.30;99.90
2112;DHT22;1062;52.538;13.400;2024-01-15T14:00:10;2.30;99.90
2112;DHT22;1062;52.538;13.400;2024-01-15T14:02:37;2.30;99.90
2112;DHT22;1062;52.538;13.400;2024-01-15T14:05:03;2.30;99.90
2112;DHT22;1062;52.538;13.400;2024-01-15T14:07:29;2.30;99.90
2112;DHT22;1062;52.538;13.400;2024-01-15T14:09:54;2.30;99.90
2112;DHT22;1062;52.538;13.400;2024-01-15T14:12:20;2.40;99.90
2112;DHT22;1062;52.538;13.400;2024-01-15T14:14:45;2.30;99.90
2112;DHT22;1062;52.538;13.400;2024-01-15T14:17:11;2.30;99.90
2112;DHT22;1062;52.538;13.400;2024-01-15T14:19:37;2.30;99.90
2112;DHT22;1062;52.538;13.400;2024-01-15T14:22:03;2.30;99.90
2112;DHT22;1062;52.538;13.400;2024-01-15T14:24:28;2.30;99.90
2112;DHT22;1062;52.538;13.400;2024-01-15T14:26:54;2.30;99.90
2112;DHT22;1062;52.538;13.400;2024-01-15T14:29:20;2.30;99.90
2112;DHT22;1062;52.538;13.400;2024-01-15T14:31:47;2.30;99.90
2112;DHT22;1062;52.538;13.400;2024-01-15T14:34:13;2.30;99.90
2112;DHT22;1062;52.538;13.400;2024-01-15T14:36:39;2.30;99.90
2112;DHT22;1062;52.538;13.400;2024-01-15T14:39:04;2.30;99.90
2112;DHT22;1062;52.538;13.400;2024-01-15T14:41:30;2.30;99.90
2112;DHT22;1062;52.538;13.400;2024-01-15T14:43:56;2.30;99.90
2112;DHT22;1062;52.538;13.400;2024-01-15T14:46:22;2.30;99.90
2112;DHT22;1062;52.538;13.400;2024-01-15T14:48:48;2.20;99.90
2112;DHT22;1062;52.538;13.400;2024-01-15T14:51:14;2.20;99.90
2112;DHT22;1062;52.538;13.400;2024-01-15T14:53:40;2.20;99.90
2112;DHT22;1062;52.538;13.400;2024-01-15T14:56:05;2.20;99.90
2112;DHT22;1062;52.538;13.400;2024-01-15T14:58:31;2.20;99.90
2112;DHT22;1062;52.538;13.400;2024-01-15T15:00:57;2.10;99.90
2112;DHT22;1062;52.538;13.400;2024-01-15T15:03:22;2.10;99.90
2112;DHT22;1062;52.538;13.400;2024-01-15T15:05:48;2.10;99.90
2112;DHT22;1062;52.538;13.400;2024-01-15T15:08:14;2.00;99.90
2112;DHT22;1062;52.538;13.400;2024-01-15T15:10:39;2.10;99.90
2112;DHT22;1062;52.538;13.400;2024-01-15T15:13:06;2.10;99.90
2112;DHT22;1062;52.538;13.400;2024-01-15T15:15:32;2.00;99.90
2112;DHT22;1062;52.538;13.400;2024-01-15T15:17:58;2.00;99.90
2112;DHT22;1062;52.538;13.400;2024-01-15T15:20:23;2.00;99.90
2112;DHT22;1062;52.538;13.400;2024-01-15T15:22:49;1.90;99.90
2112;DHT22;1062;52.538;13.400;2024-01-15T15:25:14;1.90;99.90
2112;DHT22;1062;52.538;13.400;2024-01-15T15:27:40;1.80;99.90
2112;DHT22;1062;52.538;13.400;2024-01-15T15:30:08;1.80;99.90
2112;DHT22;1062;52.538;13.400;2024-01-15T15:32:34;1.80;99.90
2112;DHT22;1062;52.538;13.400;2024-01-15T15:35:00;1.80;99.90
2112;DHT22;1062;52.538;13.400;2024-01-15T15:37:25;1.80;99.90
2112;DHT22;1062;52.538;13.400;2024-01-15T15:39:51;1.80;99.90
2112;DHT22;1062;52.538;13.400;2024-01-15T15:42:17;1.70;99.90
2112;DHT22;1062;52.538;13.400;2024-01-15T15:44:43;1.70;99.90
2112;DHT22;1062;52.538;13.400;2024-01-15T15:47:12;1.70;99.90
2112;DHT22;1062;52.538;13.400;2024-01-15T15:49:38;1.70;99.90
2112;DHT22;1062;52.538;13.400;2024-01-15T15:52:03;1.70;99.90
2112;DHT22;1062;52.538;13.400;2024-01-15T15:54:29;1.70;99.90
2112;DHT22;1062;52.538;13.400;2024-01-15T15:56:54;1.60;99.90
2112;DHT22;1062;52.538;13.400;2024-01-15T15:59:20;1.60;99.90
2112;DHT22;1062;52.538;13.400;2024-01-15T16:01:48;1.50;99.90
2112;DHT22;1062;52.538;13.400;2024-01-15T16:04:14;1.50;99.90
2112;DHT22;1062;52.538;13.400;2024-01-15T16:06:41;1.50;99.90
2112;DHT22;1062;52.538;13.400;2024-01-15T16:09:07;1.50;99.90